Time;durP1;ratioP1;P1;durP2;ratioP2;P2;SDS_P1;SDS_P2;PMS_P1;PMS_P2;Temp;Humidity;BMP_temperature;BMP_pressure;BME280_temperature;BME280_humidity;BME280_pressure;Samples;Min_cycle;Max_cycle;Signal;HPM_P1;HPM_P2
2024/01/19 00:02:23;;;;;;;20.55;14.23;;;;;;;;;;5106256;27;20153;-60
2024/01/19 00:04:50;;;;;;;9.63;4.40;;;;;;;;;;5105132;27;20141;-60
2024/01/19 00:07:16;;;;;;;10.68;4.45;;;;;;;;;;5105732;27;20059;-61
2024/01/19 00:09:43;;;;;;;9.95;4.93;;;;;;;;;;5105097;27;20416;-60
2024/01/19 00:12:09;;;;;;;12.07;4.80;;;;;;;;;;5105572;27;20448;-60
2024/01/19 00:14:35;;;;;;;5.93;2.90;;;;;;;;;;5106047;27;20055;-60
2024/01/19 00:17:02;;;;;;;13.68;3.40;;;;;;;;;;5105264;27;20137;-60
2024/01/19 00:19:28;;;;;;;4.07;2.58;;;;;;;;;;5105187;27;20063;-60
2024/01/19 00:21:55;;;;;;;8.98;2.75;;;;;;;;;;5105469;27;20051;-60
2024/01/19 00:24:21;;;;;;;7.78;2.40;;;;;;;;;;5105625;27;20117;-60
2024/01/19 00:26:48;;;;;;;9.25;2.90;;;;;;;;;;5105497;27;20157;-61
2024/01/19 00:29:14;;;;;;;4.65;2.95;;;;;;;;;;5104977;27;20536;-59
2024/01/19 00:31:45;;;;;;;10.00;4.78;;;;;;;;;;5105083;27;20755;-61
2024/01/19 00:34:12;;;;;;;3.92;2.67;;;;;;;;;;5105043;27;20052;-61
2024/01/19 00:36:39;;;;;;;6.15;2.88;;;;;;;;;;5105358;27;20102;-60
2024/01/19 00:39:05;;;;;;;10.23;5.03;;;;;;;;;;5105335;27;20497;-60
2024/01/19 00:41:32;;;;;;;7.38;3.58;;;;;;;;;;5104647;27;20071;-59
2024/01/19 00:43:58;;;;;;;6.65;3.28;;;;;;;;;;5105683;27;20044;-60
2024/01/19 00:46:25;;;;;;;8.05;2.88;;;;;;;;;;5105486;27;20151;-61
2024/01/19 00:48:52;;;;;;;5.57;3.40;;;;;;;;;;5104406;27;20636;-61
2024/01/19 00:51:18;;;;;;;13.70;5.75;;;;;;;;;;5105436;27;20056;-60
2024/01/19 00:53:45;;;;;;;8.35;3.47;;;;;;;;;;5104435;27;20217;-61
2024/01/19 00:56:11;;;;;;;9.57;4.80;;;;;;;;;;5105099;27;20044;-61
2024/01/19 00:58:40;;;;;;;7.15;4.60;;;;;;;;;;5104834;27;20086;-60
2024/01/19 01:01:07;;;;;;;10.05;2.75;;;;;;;;;;5104821;28;20058;-60
2024/01/19 01:03:33;;;;;;;4.78;2.47;;;;;;;;;;5104354;27;20086;-60
2024/01/19 01:05:59;;;;;;;4.78;2.97;;;;;;;;;;5105003;27;20533;-59
2024/01/19 01:08:27;;;;;;;4.60;2.63;;;;;;;;;;5104035;27;20052;-61
2024/01/19 01:10:54;;;;;;;6.18;2.58;;;;;;;;;;5104511;27;20468;-61
2024/01/19 01:13:21;;;;;;;10.45;4.55;;;;;;;;;;5104904;27;20052;-61
2024/01/19 01:15:47;;;;;;;4.85;2.10;;;;;;;;;;5104688;27;20106;-61
2024/01/19 01:18:14;;;;;;;5.32;3.00;;;;;;;;;;5104827;27;20055;-62
2024/01/19 01:20:41;;;;;;;5.22;2.65;;;;;;;;;;5104135;27;20055;-58
2024/01/19 01:23:08;;;;;;;4.30;2.20;;;;;;;;;;5104906;27;20055;-59
2024/01/19 01:25:35;;;;;;;6.28;1.95;;;;;;;;;;5104659;27;20131;-60
2024/01/19 01:28:02;;;;;;;7.13;2.70;;;;;;;;;;5104390;27;20507;-60
2024/01/19 01:30:28;;;;;;;4.78;2.25;;;;;;;;;;5104296;27;20151;-61
2024/01/19 01:32:55;;;;;;;4.60;1.95;;;;;;;;;;5103720;27;20056;-60
2024/01/19 01:35:22;;;;;;;6.93;1.60;;;;;;;;;;5103357;27;20059;-60
2024/01/19 01:37:49;;;;;;;4.10;1.40;;;;;;;;;;5104500;27;20132;-60
2024/01/19 01:40:15;;;;;;;5.05;1.55;;;;;;;;;;5104373;27;20382;-61
2024/01/19 01:42:41;;;;;;;6.00;1.88;;;;;;;;;;5104265;27;20048;-59
2024/01/19 01:45:08;;;;;;;42.60;23.33;;;;;;;;;;5103976;27;20059;-61
2024/01/19 01:47:34;;;;;;;7.88;4.10;;;;;;;;;;5103561;27;20109;-60
2024/01/19 01:50:01;;;;;;;2.72;2.33;;;;;;;;;;5104041;27;20044;-61
2024/01/19 01:52:28;;;;;;;3.42;2.17;;;;;;;;;;5103762;27;20052;-60
2024/01/19 01:54:54;;;;;;;4.45;3.42;;;;;;;;;;5102771;27;20139;-60
2024/01/19 01:57:22;;;;;;;9.35;6.60;;;;;;;;;;5103667;27;20066;-60
2024/01/19 01:59:49;;;;;;;4.68;2.50;;;;;;;;;;5104032;27;20151;-60
2024/01/19 02:02:15;;;;;;;4.63;3.47;;;;;;;;;;5103234;27;20080;-60
2024/01/19 02:04:42;;;;;;;7.40;2.40;;;;;;;;;;5104057;27;20715;-59
2024/01/19 02:07:08;;;;;;;4.88;3.75;;;;;;;;;;5103910;27;20106;-61
2024/01/19 02:09:36;;;;;;;4.35;2.38;;;;;;;;;;5103474;27;20476;-58
2024/01/19 02:12:03;;;;;;;3.33;2.38;;;;;;;;;;5103870;27;20074;-61
2024/01/19 02:14:29;;;;;;;3.85;2.17;;;;;;;;;;5083845;28;20628;-59
2024/01/19 02:16:56;;;;;;;3.95;1.90;;;;;;;;;;5083328;28;20416;-60
2024/01/19 02:19:22;;;;;;;7.05;4.03;;;;;;;;;;5103522;27;20536;-60
2024/01/19 02:21:49;;;;;;;6.40;3.03;;;;;;;;;;5103984;27;20052;-60
2024/01/19 02:24:15;;;;;;;5.13;3.75;;;;;;;;;;5103465;27;20083;-60
2024/01/19 02:26:42;;;;;;;6.57;3.33;;;;;;;;;;5103224;27;20059;-60
2024/01/19 02:29:09;;;;;;;4.25;3.28;;;;;;;;;;5103609;27;20044;-60
2024/01/19 02:31:35;;;;;;;4.40;3.90;;;;;;;;;;5103902;27;20056;-59
2024/01/19 02:34:02;;;;;;;5.00;3.33;;;;;;;;;;5102770;27;20722;-60
2024/01/19 02:36:28;;;;;;;7.50;2.33;;;;;;;;;;5103439;27;20765;-60
2024/01/19 02:38:55;;;;;;;8.23;4.72;;;;;;;;;;5103389;27;20060;-60
2024/01/19 02:41:21;;;;;;;4.70;3.40;;;;;;;;;;5103343;27;20044;-59
2024/01/19 02:43:48;;;;;;;7.90;3.38;;;;;;;;;;5103178;27;20059;-60
2024/01/19 02:46:15;;;;;;;6.55;2.15;;;;;;;;;;5103029;27;20165;-61
2024/01/19 02:48:41;;;;;;;8.88;4.20;;;;;;;;;;5103105;27;20054;-59
2024/01/19 02:51:08;;;;;;;4.72;2.35;;;;;;;;;;5103793;27;20109;-60
2024/01/19 02:53:34;;;;;;;4.75;3.08;;;;;;;;;;5103292;27;20068;-60
2024/01/19 02:56:01;;;;;;;4.30;2.00;;;;;;;;;;5103059;27;20055;-61
2024/01/19 02:58:27;;;;;;;8.10;2.78;;;;;;;;;;5102480;27;21514;-60
2024/01/19 03:00:54;;;;;;;5.53;2.35;;;;;;;;;;5102988;27;20048;-57
2024/01/19 03:03:20;;;;;;;5.80;3.58;;;;;;;;;;5103069;27;20057;-61
2024/01/19 03:05:47;;;;;;;7.47;3.25;;;;;;;;;;5108107;27;20059;-60
2024/01/19 03:08:13;;;;;;;8.70;2.55;;;;;;;;;;5109807;27;20044;-60
2024/01/19 03:10:40;;;;;;;6.40;3.53;;;;;;;;;;5108245;27;20139;-60
2024/01/19 03:13:06;;;;;;;4.15;2.90;;;;;;;;;;5109616;27;20056;-61
2024/01/19 03:15:32;;;;;;;9.52;3.40;;;;;;;;;;5110615;27;20040;-60
2024/01/19 03:17:59;;;;;;;4.68;2.95;;;;;;;;;;5109682;27;20056;-60
2024/01/19 03:20:25;;;;;;;5.43;2.47;;;;;;;;;;5109663;27;20051;-59
2024/01/19 03:22:51;;;;;;;4.55;2.58;;;;;;;;;;5109251;28;20056;-59
2024/01/19 03:25:18;;;;;;;9.40;3.72;;;;;;;;;;5109989;27;20051;-60
2024/01/19 03:27:44;;;;;;;6.18;2.60;;;;;;;;;;5108569;27;20048;-58
2024/01/19 03:30:11;;;;;;;10.43;3.00;;;;;;;;;;5109020;27;20142;-59
2024/01/19 03:32:38;;;;;;;4.28;2.83;;;;;;;;;;5089813;28;20114;-59
2024/01/19 03:35:04;;;;;;;8.48;2.92;;;;;;;;;;5094965;28;20056;-61
2024/01/19 03:37:31;;;;;;;8.15;3.88;;;;;;;;;;5109875;27;20067;-61
2024/01/19 03:39:57;;;;;;;7.15;2.78;;;;;;;;;;5109526;27;20109;-60
2024/01/19 03:42:26;;;;;;;9.95;3.80;;;;;;;;;;5109003;27;20052;-60
2024/01/19 03:44:52;;;;;;;11.60;3.55;;;;;;;;;;5108541;27;20106;-60
2024/01/19 03:47:19;;;;;;;5.25;2.83;;;;;;;;;;5109424;27;20048;-60
2024/01/19 03:49:45;;;;;;;9.68;2.65;;;;;;;;;;5108697;27;20068;-61
2024/01/19 03:52:12;;;;;;;7.18;2.95;;;;;;;;;;5109734;27;20067;-60
2024/01/19 03:54:39;;;;;;;8.82;3.08;;;;;;;;;;5106406;27;20488;-60
2024/01/19 03:57:06;;;;;;;8.10;3.17;;;;;;;;;;5108468;27;20517;-60
2024/01/19 03:59:32;;;;;;;7.32;2.85;;;;;;;;;;5109251;27;20349;-60
2024/01/19 04:01:59;;;;;;;4.38;2.60;;;;;;;;;;5108686;27;20066;-60
2024/01/19 04:04:26;;;;;;;5.03;2.80;;;;;;;;;;5109358;27;20055;-60
2024/01/19 04:06:53;;;;;;;7.47;2.67;;;;;;;;;;5109093;27;20048;-59
2024/01/19 04:09:19;;;;;;;7.53;2.60;;;;;;;;;;5109610;27;20056;-60
2024/01/19 04:11:46;;;;;;;7.93;2.90;;;;;;;;;;5107880;27;20146;-60
2024/01/19 04:14:12;;;;;;;11.35;3.38;;;;;;;;;;5109660;27;20052;-60
2024/01/19 04:16:39;;;;;;;6.05;2.53;;;;;;;;;;5107123;27;20143;-58
2024/01/19 04:19:05;;;;;;;11.77;3.20;;;;;;;;;;5105534;27;20498;-60
2024/01/19 04:21:33;;;;;;;10.82;3.30;;;;;;;;;;5106741;27;20552;-59
2024/01/19 04:23:59;;;;;;;8.40;2.70;;;;;;;;;;5105229;27;20226;-61
2024/01/19 04:26:27;;;;;;;7.40;2.40;;;;;;;;;;5104744;27;20114;-61
2024/01/19 04:28:54;;;;;;;10.27;2.22;;;;;;;;;;5105199;27;20052;-60
2024/01/19 04:31:21;;;;;;;10.80;3.38;;;;;;;;;;5105493;27;20052;-60
2024/01/19 04:33:48;;;;;;;16.33;7.97;;;;;;;;;;5105436;28;20549;-60
2024/01/19 04:36:14;;;;;;;27.90;17.05;;;;;;;;;;5104966;27;20075;-61
2024/01/19 04:38:41;;;;;;;16.92;12.45;;;;;;;;;;5105208;27;20659;-59
2024/01/19 04:41:07;;;;;;;14.57;10.93;;;;;;;;;;5105416;28;20048;-61
2024/01/19 04:43:33;;;;;;;18.90;9.60;;;;;;;;;;5105222;28;20105;-61
2024/01/19 04:46:00;;;;;;;16.52;11.18;;;;;;;;;;5105265;27;20079;-58
2024/01/19 04:48:26;;;;;;;6.93;4.85;;;;;;;;;;5105158;27;20132;-60
2024/01/19 04:50:53;;;;;;;7.30;4.00;;;;;;;;;;5104887;27;20110;-61
2024/01/19 04:53:19;;;;;;;13.65;5.22;;;;;;;;;;5105360;28;20059;-61
2024/01/19 04:55:46;;;;;;;10.60;6.47;;;;;;;;;;5104393;27;20056;-61
2024/01/19 04:58:12;;;;;;;19.17;13.98;;;;;;;;;;5105643;27;20502;-61
2024/01/19 05:00:39;;;;;;;16.70;8.80;;;;;;;;;;5104708;27;20591;-61
2024/01/19 05:03:06;;;;;;;7.45;4.55;;;;;;;;;;5105037;27;20059;-61
2024/01/19 05:05:32;;;;;;;9.90;6.32;;;;;;;;;;5105555;27;20048;-60
2024/01/19 05:08:00;;;;;;;7.45;6.18;;;;;;;;;;5104649;27;20516;-60
2024/01/19 05:10:26;;;;;;;14.55;4.78;;;;;;;;;;5104269;27;20052;-59
2024/01/19 05:12:53;;;;;;;11.02;6.35;;;;;;;;;;5104610;27;20044;-60
2024/01/19 05:15:19;;;;;;;7.07;4.78;;;;;;;;;;5105382;27;20064;-60
2024/01/19 05:17:48;;;;;;;9.32;4.20;;;;;;;;;;5105011;27;20052;-60
2024/01/19 05:20:15;;;;;;;10.65;5.40;;;;;;;;;;5104950;27;20052;-60
2024/01/19 05:22:41;;;;;;;13.20;4.40;;;;;;;;;;5104713;27;20060;-60
2024/01/19 05:25:08;;;;;;;7.78;3.70;;;;;;;;;;5104224;28;20060;-60
2024/01/19 05:27:35;;;;;;;8.52;4.68;;;;;;;;;;5104710;27;20135;-60
2024/01/19 05:30:01;;;;;;;8.10;2.58;;;;;;;;;;5104199;27;20138;-60
2024/01/19 05:32:28;;;;;;;11.48;3.03;;;;;;;;;;5104915;27;20048;-60
2024/01/19 05:34:54;;;;;;;12.50;3.08;;;;;;;;;;5104355;27;20048;-59
2024/01/19 05:37:21;;;;;;;6.70;2.70;;;;;;;;;;5103645;27;20056;-61
2024/01/19 05:39:47;;;;;;;11.38;5.55;;;;;;;;;;5102602;27;20048;-61
2024/01/19 05:42:14;;;;;;;6.53;4.72;;;;;;;;;;5104750;27;20080;-61
2024/01/19 05:44:41;;;;;;;12.40;4.75;;;;;;;;;;5101374;27;20052;-59
2024/01/19 05:47:08;;;;;;;7.13;3.20;;;;;;;;;;5087397;28;20653;-61
2024/01/19 05:49:34;;;;;;;6.20;2.10;;;;;;;;;;5082393;28;20056;-61
2024/01/19 05:52:01;;;;;;;2.25;1.65;;;;;;;;;;5095881;28;20155;-61
2024/01/19 05:54:28;;;;;;;3.05;1.95;;;;;;;;;;5104292;27;20157;-60
2024/01/19 05:56:54;;;;;;;6.57;1.92;;;;;;;;;;5104020;27;20529;-61
2024/01/19 05:59:21;;;;;;;8.30;3.50;;;;;;;;;;5086679;27;20053;-61
2024/01/19 06:01:47;;;;;;;9.13;3.70;;;;;;;;;;5087716;28;20624;-60
2024/01/19 06:04:14;;;;;;;3.63;2.70;;;;;;;;;;5088859;28;20523;-60
2024/01/19 06:06:40;;;;;;;15.60;3.60;;;;;;;;;;5104239;27;20052;-59
2024/01/19 06:09:08;;;;;;;17.38;3.65;;;;;;;;;;5103947;27;20056;-60
2024/01/19 06:11:34;;;;;;;8.48;2.65;;;;;;;;;;5104182;27;20048;-61
2024/01/19 06:14:02;;;;;;;6.95;3.15;;;;;;;;;;5103631;27;20193;-60
2024/01/19 06:16:29;;;;;;;4.60;1.58;;;;;;;;;;5103340;27;20139;-61
2024/01/19 06:18:58;;;;;;;4.93;1.83;;;;;;;;;;5103001;27;20055;-61
2024/01/19 06:21:24;;;;;;;6.65;1.73;;;;;;;;;;5103601;27;20062;-60
2024/01/19 06:23:51;;;;;;;7.30;2.05;;;;;;;;;;5103952;27;20080;-60
2024/01/19 06:26:17;;;;;;;9.60;4.07;;;;;;;;;;5104127;27;20048;-58
2024/01/19 06:28:44;;;;;;;3.80;1.63;;;;;;;;;;5103197;27;20637;-60
2024/01/19 06:31:10;;;;;;;6.05;1.80;;;;;;;;;;5104087;27;20518;-61
2024/01/19 06:33:37;;;;;;;10.75;2.22;;;;;;;;;;5097690;28;20498;-59
2024/01/19 06:36:08;;;;;;;3.25;1.35;;;;;;;;;;5103371;27;20052;-61
2024/01/19 06:38:34;;;;;;;7.15;1.90;;;;;;;;;;5103128;27;20141;-60
2024/01/19 06:41:02;;;;;;;2.95;1.50;;;;;;;;;;5094780;28;20060;-61
2024/01/19 06:43:28;;;;;;;4.82;1.38;;;;;;;;;;5083547;28;20075;-60
2024/01/19 06:45:55;;;;;;;9.13;2.17;;;;;;;;;;5082743;28;20142;-61
2024/01/19 06:48:21;;;;;;;6.18;1.90;;;;;;;;;;5090310;28;20105;-60
2024/01/19 06:50:48;;;;;;;11.25;1.70;;;;;;;;;;5103226;27;20052;-60
2024/01/19 06:53:14;;;;;;;6.72;1.90;;;;;;;;;;5103807;27;20122;-60
2024/01/19 06:55:41;;;;;;;5.93;1.50;;;;;;;;;;5103499;27;20095;-59
2024/01/19 06:58:08;;;;;;;5.75;2.00;;;;;;;;;;5103160;27;20052;-58
2024/01/19 07:00:34;;;;;;;4.10;1.52;;;;;;;;;;5091719;27;20141;-59
2024/01/19 07:03:01;;;;;;;4.05;1.30;;;;;;;;;;5098745;27;20063;-58
2024/01/19 07:05:27;;;;;;;4.47;1.75;;;;;;;;;;5100407;27;20053;-60
2024/01/19 07:07:54;;;;;;;4.10;1.50;;;;;;;;;;5102275;27;20052;-60
2024/01/19 07:10:23;;;;;;;3.53;2.30;;;;;;;;;;5102880;27;20149;-60
2024/01/19 07:12:49;;;;;;;9.07;2.13;;;;;;;;;;5102673;27;20509;-59
2024/01/19 07:15:15;;;;;;;2.88;2.33;;;;;;;;;;5102231;27;20106;-59
2024/01/19 07:17:42;;;;;;;3.67;2.38;;;;;;;;;;5102822;27;20139;-60
2024/01/19 07:20:09;;;;;;;5.43;2.78;;;;;;;;;;5102706;27;20107;-60
2024/01/19 07:22:35;;;;;;;10.52;2.92;;;;;;;;;;5099148;27;20548;-59
2024/01/19 07:25:02;;;;;;;6.13;2.83;;;;;;;;;;5101965;27;20044;-59
2024/01/19 07:27:29;;;;;;;7.95;2.90;;;;;;;;;;5101116;28;20059;-59
2024/01/19 07:29:56;;;;;;;8.73;3.17;;;;;;;;;;5102074;27;20143;-60
2024/01/19 07:32:24;;;;;;;9.05;3.20;;;;;;;;;;5102197;27;20050;-57
2024/01/19 07:34:51;;;;;;;13.18;3.50;;;;;;;;;;5097439;28;20381;-59
2024/01/19 07:37:18;;;;;;;8.95;4.15;;;;;;;;;;5100798;27;20082;-61
2024/01/19 07:39:44;;;;;;;7.82;3.35;;;;;;;;;;5097361;27;20091;-59
2024/01/19 07:42:11;;;;;;;6.15;3.70;;;;;;;;;;5086016;28;20060;-61
2024/01/19 07:44:38;;;;;;;8.85;4.22;;;;;;;;;;5093612;28;20060;-60
2024/01/19 07:47:04;;;;;;;5.65;3.53;;;;;;;;;;5090478;28;20059;-59
2024/01/19 07:49:30;;;;;;;7.40;3.92;;;;;;;;;;5101683;27;20172;-59
2024/01/19 07:51:57;;;;;;;10.40;4.53;;;;;;;;;;5086733;27;20156;-60
2024/01/19 07:54:23;;;;;;;17.08;5.07;;;;;;;;;;5105950;27;20524;-58
2024/01/19 07:56:50;;;;;;;26.05;13.52;;;;;;;;;;5102884;27;20060;-58
2024/01/19 07:59:17;;;;;;;46.25;26.77;;;;;;;;;;5115500;27;20078;-61
2024/01/19 08:01:43;;;;;;;17.85;10.52;;;;;;;;;;5117478;27;20062;-58
2024/01/19 08:04:10;;;;;;;29.00;18.08;;;;;;;;;;5106396;27;20059;-60
2024/01/19 08:06:36;;;;;;;19.80;12.10;;;;;;;;;;5103611;28;20052;-61
2024/01/19 08:09:03;;;;;;;25.77;13.77;;;;;;;;;;5105276;28;20118;-61
2024/01/19 08:11:29;;;;;;;15.15;6.80;;;;;;;;;;5105671;27;20109;-61
2024/01/19 08:13:56;;;;;;;12.80;6.53;;;;;;;;;;5101543;27;20052;-60
2024/01/19 08:16:23;;;;;;;16.95;5.38;;;;;;;;;;5105142;27;20044;-61
2024/01/19 08:18:49;;;;;;;10.73;5.00;;;;;;;;;;5111973;27;20048;-60
2024/01/19 08:21:16;;;;;;;12.55;6.30;;;;;;;;;;5126081;27;20052;-59
2024/01/19 08:23:43;;;;;;;25.50;12.95;;;;;;;;;;5124391;27;20101;-57
2024/01/19 08:26:09;;;;;;;12.75;5.78;;;;;;;;;;5125749;27;20055;-61
2024/01/19 08:28:36;;;;;;;17.88;7.18;;;;;;;;;;5111117;27;20044;-60
2024/01/19 08:31:02;;;;;;;16.60;8.48;;;;;;;;;;5113116;27;20048;-60
2024/01/19 08:33:29;;;;;;;15.82;11.13;;;;;;;;;;5085733;27;20056;-57
2024/01/19 08:35:56;;;;;;;14.77;8.75;;;;;;;;;;5084573;28;20114;-60
2024/01/19 08:38:23;;;;;;;8.82;4.80;;;;;;;;;;5084871;28;20482;-59
2024/01/19 08:40:49;;;;;;;16.98;11.02;;;;;;;;;;5084762;28;20404;-59
2024/01/19 08:43:16;;;;;;;10.70;6.68;;;;;;;;;;5105164;28;20095;-60
2024/01/19 08:45:42;;;;;;;12.18;5.65;;;;;;;;;;5103985;27;20067;-60
2024/01/19 08:48:09;;;;;;;19.17;11.43;;;;;;;;;;5097282;27;20059;-60
2024/01/19 08:50:36;;;;;;;11.75;8.55;;;;;;;;;;5101117;28;20109;-59
2024/01/19 08:53:02;;;;;;;10.57;4.72;;;;;;;;;;5093382;27;20056;-59
2024/01/19 08:55:29;;;;;;;8.93;5.05;;;;;;;;;;5104521;27;20052;-61
2024/01/19 08:57:57;;;;;;;15.32;9.32;;;;;;;;;;5095553;27;20107;-59
2024/01/19 09:00:23;;;;;;;8.65;6.15;;;;;;;;;;5084812;28;20101;-60
2024/01/19 09:02:49;;;;;;;19.40;11.10;;;;;;;;;;5083064;28;20060;-59
2024/01/19 09:05:28;;;;;;;16.23;8.38;;;;;;;;;;5094322;28;20044;-58
2024/01/19 09:07:55;;;;;;;14.57;9.60;;;;;;;;;;5104945;27;20148;-60
2024/01/19 09:10:23;;;;;;;12.23;7.22;;;;;;;;;;5090393;27;20049;-60
2024/01/19 09:12:49;;;;;;;7.57;4.78;;;;;;;;;;5087689;27;20056;-60
2024/01/19 09:15:16;;;;;;;19.73;12.23;;;;;;;;;;5092726;28;20055;-60
2024/01/19 09:17:43;;;;;;;48.78;37.92;;;;;;;;;;5104693;27;20629;-60
2024/01/19 09:20:10;;;;;;;19.05;15.02;;;;;;;;;;5091362;28;20056;-59
2024/01/19 09:22:36;;;;;;;14.77;8.98;;;;;;;;;;5095682;28;20067;-61
2024/01/19 09:25:03;;;;;;;7.97;6.03;;;;;;;;;;5091768;27;20585;-60
2024/01/19 09:27:30;;;;;;;15.98;9.35;;;;;;;;;;5104170;27;20056;-59
2024/01/19 09:29:56;;;;;;;10.77;6.45;;;;;;;;;;5103421;27;20052;-59
2024/01/19 09:32:23;;;;;;;11.93;6.40;;;;;;;;;;5085741;27;20467;-61
2024/01/19 09:34:49;;;;;;;10.43;5.90;;;;;;;;;;5084109;28;20052;-59
2024/01/19 09:37:16;;;;;;;11.50;6.00;;;;;;;;;;5083863;28;20512;-59
2024/01/19 09:39:42;;;;;;;14.38;7.13;;;;;;;;;;5084265;28;20498;-60
2024/01/19 09:42:18;;;;;;;12.98;6.65;;;;;;;;;;5083752;28;20515;-61
2024/01/19 09:44:50;;;;;;;10.05;6.18;;;;;;;;;;5083689;28;20040;-59
2024/01/19 09:47:20;;;;;;;10.68;5.85;;;;;;;;;;5102635;28;20457;-59
2024/01/19 09:49:59;;;;;;;12.13;6.80;;;;;;;;;;5104066;27;20055;-58
2024/01/19 09:52:31;;;;;;;17.45;10.25;;;;;;;;;;5103498;27;20502;-59
2024/01/19 09:54:58;;;;;;;20.65;6.30;;;;;;;;;;5089595;28;20076;-57
2024/01/19 09:57:24;;;;;;;13.75;7.30;;;;;;;;;;5085100;27;20168;-59
2024/01/19 09:59:51;;;;;;;24.38;11.35;;;;;;;;;;5082999;28;20601;-60
2024/01/19 10:02:19;;;;;;;18.65;11.90;;;;;;;;;;5083604;28;20059;-60
2024/01/19 10:04:46;;;;;;;18.52;6.97;;;;;;;;;;5083003;28;20067;-59
2024/01/19 10:07:13;;;;;;;22.42;12.82;;;;;;;;;;5084024;28;20564;-60
2024/01/19 10:09:40;;;;;;;12.55;7.53;;;;;;;;;;5083316;28;20060;-58
2024/01/19 10:12:07;;;;;;;12.95;5.20;;;;;;;;;;5089712;27;20056;-60
2024/01/19 10:14:33;;;;;;;15.05;7.72;;;;;;;;;;5082561;27;20053;-59
2024/01/19 10:17:02;;;;;;;10.88;6.53;;;;;;;;;;5082958;28;20048;-60
2024/01/19 10:19:29;;;;;;;23.17;8.60;;;;;;;;;;5082540;28;20588;-61
2024/01/19 10:21:56;;;;;;;11.75;7.38;;;;;;;;;;5082809;28;20499;-59
2024/01/19 10:24:22;;;;;;;10.35;5.70;;;;;;;;;;5082957;28;20044;-61
2024/01/19 10:26:52;;;;;;;14.10;8.13;;;;;;;;;;5082988;28;20391;-59
2024/01/19 10:29:20;;;;;;;13.55;6.68;;;;;;;;;;5084169;28;20499;-59
2024/01/19 10:31:48;;;;;;;9.38;4.95;;;;;;;;;;5103252;27;20060;-60
2024/01/19 10:34:18;;;;;;;15.85;6.05;;;;;;;;;;5098961;27;20143;-60
2024/01/19 10:36:46;;;;;;;9.65;5.95;;;;;;;;;;5101503;27;20054;-57
2024/01/19 10:39:19;;;;;;;12.98;7.28;;;;;;;;;;5099511;28;20058;-57
2024/01/19 10:41:46;;;;;;;18.67;7.43;;;;;;;;;;5091137;27;20441;-60
2024/01/19 10:44:14;;;;;;;13.35;7.65;;;;;;;;;;5081817;28;20158;-58
2024/01/19 10:46:41;;;;;;;13.35;6.65;;;;;;;;;;5086134;27;20135;-59
2024/01/19 10:49:08;;;;;;;10.63;7.88;;;;;;;;;;5100916;27;20052;-59
2024/01/19 10:51:37;;;;;;;9.73;6.82;;;;;;;;;;5103261;27;20545;-59
2024/01/19 10:54:03;;;;;;;8.77;5.93;;;;;;;;;;5102500;27;20055;-59
2024/01/19 10:56:30;;;;;;;10.07;4.30;;;;;;;;;;5102820;27;20066;-60
2024/01/19 10:59:10;;;;;;;7.68;4.18;;;;;;;;;;5102101;27;20105;-58
2024/01/19 11:01:37;;;;;;;14.65;4.63;;;;;;;;;;5093977;27;20351;-58
2024/01/19 11:04:05;;;;;;;6.97;4.72;;;;;;;;;;5093823;27;20343;-59
2024/01/19 11:06:32;;;;;;;12.52;5.97;;;;;;;;;;5082819;28;20521;-60
2024/01/19 11:08:58;;;;;;;8.27;4.80;;;;;;;;;;5081784;28;20502;-60
2024/01/19 11:11:26;;;;;;;12.80;4.57;;;;;;;;;;5082205;28;20044;-60
2024/01/19 11:13:54;;;;;;;12.48;5.07;;;;;;;;;;5082807;27;20057;-60
2024/01/19 11:16:22;;;;;;;13.98;5.82;;;;;;;;;;5102568;27;20418;-56
2024/01/19 11:18:49;;;;;;;13.43;4.63;;;;;;;;;;5102447;27;20090;-61
2024/01/19 11:21:16;;;;;;;11.85;5.18;;;;;;;;;;5102866;27;20548;-61
2024/01/19 11:23:43;;;;;;;14.18;4.25;;;;;;;;;;5102696;27;20474;-60
2024/01/19 11:26:18;;;;;;;12.00;5.45;;;;;;;;;;5103778;27;20052;-61
2024/01/19 11:28:44;;;;;;;13.60;4.93;;;;;;;;;;5105785;27;20403;-61
2024/01/19 11:31:17;;;;;;;14.75;8.02;;;;;;;;;;5105994;27;20672;-60
2024/01/19 11:33:45;;;;;;;8.75;4.95;;;;;;;;;;5105967;27;20051;-60
2024/01/19 11:36:33;;;;;;;13.27;6.00;;;;;;;;;;5106183;27;20157;-59
2024/01/19 11:38:59;;;;;;;9.35;5.20;;;;;;;;;;5100240;27;20453;-61
2024/01/19 11:41:31;;;;;;;12.32;6.28;;;;;;;;;;5105827;27;20068;-59
2024/01/19 11:43:59;;;;;;;8.63;5.22;;;;;;;;;;5105977;27;20056;-58
2024/01/19 11:46:44;;;;;;;17.50;7.15;;;;;;;;;;5106022;27;20135;-60
2024/01/19 11:49:29;;;;;;;19.80;11.48;;;;;;;;;;5095089;28;20056;-60
2024/01/19 11:51:56;;;;;;;21.75;9.77;;;;;;;;;;5101983;27;20098;-59
2024/01/19 11:54:25;;;;;;;23.83;10.43;;;;;;;;;;5095310;27;20132;-61
2024/01/19 11:56:51;;;;;;;7.55;4.10;;;;;;;;;;5104946;27;20067;-59
2024/01/19 11:59:24;;;;;;;12.85;6.50;;;;;;;;;;5103891;28;20138;-61
2024/01/19 12:01:50;;;;;;;16.83;7.57;;;;;;;;;;5105141;27;20528;-58
2024/01/19 12:04:18;;;;;;;13.70;6.10;;;;;;;;;;5105568;27;20076;-62
2024/01/19 12:06:44;;;;;;;10.60;3.75;;;;;;;;;;5105486;27;20048;-60
2024/01/19 12:09:12;;;;;;;11.55;7.32;;;;;;;;;;5105727;27;20078;-60
2024/01/19 12:11:39;;;;;;;10.35;5.85;;;;;;;;;;5104705;27;20083;-57
2024/01/19 12:14:06;;;;;;;12.43;4.45;;;;;;;;;;5104917;27;20591;-60
2024/01/19 12:16:32;;;;;;;13.20;4.38;;;;;;;;;;5104609;27;20048;-60
2024/01/19 12:18:59;;;;;;;11.57;4.78;;;;;;;;;;5105248;27;20076;-61
2024/01/19 12:21:26;;;;;;;11.35;4.13;;;;;;;;;;5105795;27;20533;-59
2024/01/19 12:23:53;;;;;;;17.50;4.13;;;;;;;;;;5109818;27;20052;-60
2024/01/19 12:26:23;;;;;;;7.57;3.72;;;;;;;;;;5105169;27;20055;-59
2024/01/19 12:28:52;;;;;;;8.40;3.53;;;;;;;;;;5105210;27;20530;-60
2024/01/19 12:31:20;;;;;;;9.77;3.90;;;;;;;;;;5117526;27;20057;-61
2024/01/19 12:33:46;;;;;;;9.30;3.70;;;;;;;;;;5104721;27;20528;-58
2024/01/19 12:36:13;;;;;;;8.55;2.63;;;;;;;;;;5105795;27;20595;-58
2024/01/19 12:38:40;;;;;;;7.32;2.60;;;;;;;;;;5103540;27;20532;-57
2024/01/19 12:41:11;;;;;;;7.63;3.00;;;;;;;;;;5104685;28;20065;-55
2024/01/19 12:43:38;;;;;;;5.95;2.60;;;;;;;;;;5105695;27;20544;-59
2024/01/19 12:46:06;;;;;;;9.50;2.85;;;;;;;;;;5104978;27;20056;-60
2024/01/19 12:48:34;;;;;;;10.43;2.78;;;;;;;;;;5104973;27;20579;-59
2024/01/19 12:51:05;;;;;;;10.57;3.38;;;;;;;;;;5104315;27;20054;-58
2024/01/19 12:53:32;;;;;;;8.95;3.03;;;;;;;;;;5103261;27;20059;-60
2024/01/19 12:56:19;;;;;;;9.45;2.90;;;;;;;;;;5103324;27;20052;-61
2024/01/19 12:58:45;;;;;;;12.60;4.15;;;;;;;;;;5084153;28;20527;-60
2024/01/19 13:01:12;;;;;;;10.10;3.58;;;;;;;;;;5092417;28;20052;-59
2024/01/19 13:03:38;;;;;;;7.88;3.13;;;;;;;;;;5104456;27;20051;-60
2024/01/19 13:06:05;;;;;;;6.10;2.78;;;;;;;;;;5104328;27;20052;-59
2024/01/19 13:08:32;;;;;;;6.45;3.13;;;;;;;;;;5103805;27;20060;-59
2024/01/19 13:11:05;;;;;;;10.25;3.25;;;;;;;;;;5104249;27;20120;-56
2024/01/19 13:13:32;;;;;;;11.90;3.20;;;;;;;;;;5103989;27;20526;-58
2024/01/19 13:16:05;;;;;;;9.98;3.30;;;;;;;;;;5104385;27;20055;-60
2024/01/19 13:18:31;;;;;;;12.32;3.75;;;;;;;;;;5104745;27;20048;-59
2024/01/19 13:21:08;;;;;;;8.57;4.07;;;;;;;;;;5103982;27;20473;-61
2024/01/19 13:23:35;;;;;;;7.47;3.35;;;;;;;;;;5103946;27;20056;-57
2024/01/19 13:26:01;;;;;;;10.48;4.20;;;;;;;;;;5104333;27;20047;-58
2024/01/19 13:28:28;;;;;;;17.15;6.43;;;;;;;;;;5104438;27;20127;-59
2024/01/19 13:30:55;;;;;;;11.55;3.65;;;;;;;;;;5103440;27;20426;-60
2024/01/19 13:33:23;;;;;;;9.60;4.18;;;;;;;;;;5104054;27;20052;-59
2024/01/19 13:35:51;;;;;;;12.82;3.72;;;;;;;;;;5104115;27;20056;-60
2024/01/19 13:38:17;;;;;;;10.65;3.55;;;;;;;;;;5103904;27;20128;-60
2024/01/19 13:40:51;;;;;;;7.68;3.28;;;;;;;;;;5104098;27;20559;-59
2024/01/19 13:43:18;;;;;;;14.73;3.92;;;;;;;;;;5104800;27;20063;-60
2024/01/19 13:45:44;;;;;;;6.70;2.72;;;;;;;;;;5103665;27;20079;-60
2024/01/19 13:48:11;;;;;;;9.82;3.13;;;;;;;;;;5104032;27;20400;-58
2024/01/19 13:50:37;;;;;;;5.78;2.63;;;;;;;;;;5100379;27;20105;-60
2024/01/19 13:53:04;;;;;;;7.03;2.95;;;;;;;;;;5098445;28;20127;-58
2024/01/19 13:55:30;;;;;;;6.38;2.40;;;;;;;;;;5103720;27;20055;-59
2024/01/19 13:57:56;;;;;;;11.55;8.45;;;;;;;;;;5103817;27;20051;-60
2024/01/19 14:00:23;;;;;;;38.97;35.08;;;;;;;;;;5103901;27;20460;-60
2024/01/19 14:02:51;;;;;;;8.38;6.88;;;;;;;;;;5118949;27;20149;-59
2024/01/19 14:05:17;;;;;;;14.82;9.40;;;;;;;;;;5121582;27;20047;-59
2024/01/19 14:07:44;;;;;;;9.30;6.10;;;;;;;;;;5103727;27;20052;-60
2024/01/19 14:10:11;;;;;;;15.80;13.68;;;;;;;;;;5103894;27;20119;-57
2024/01/19 14:12:37;;;;;;;13.32;6.45;;;;;;;;;;5103523;27;20114;-60
2024/01/19 14:15:04;;;;;;;17.23;14.63;;;;;;;;;;5103129;27;20052;-59
2024/01/19 14:17:30;;;;;;;13.05;7.20;;;;;;;;;;5103512;28;20048;-57
2024/01/19 14:19:56;;;;;;;15.23;6.05;;;;;;;;;;5102065;27;20052;-60
2024/01/19 14:22:23;;;;;;;11.50;6.78;;;;;;;;;;5103248;27;20135;-60
2024/01/19 14:24:50;;;;;;;16.75;10.85;;;;;;;;;;5102861;27;20633;-59
2024/01/19 14:27:19;;;;;;;10.35;7.10;;;;;;;;;;5103145;27;20063;-60
2024/01/19 14:29:47;;;;;;;15.70;11.82;;;;;;;;;;5103222;27;20143;-60
2024/01/19 14:32:15;;;;;;;12.20;8.63;;;;;;;;;;5102773;27;20101;-59
2024/01/19 14:34:42;;;;;;;15.05;9.90;;;;;;;;;;5102235;28;20056;-57
2024/01/19 14:37:16;;;;;;;6.95;4.95;;;;;;;;;;5103312;27;20044;-57